Echague, Argentina
Current Conditions -  °F | °C
As of 12:00 PM on Monday 24 Nov 2014 (Local Time) from SAAR Reporting Station
Thunderstorm Thunderstorm  
Wind Chill: 77°   Ceiling: 2300
Heat Index: 79°   Visibility: 6mi
Dew Point: 66°   Wind: 5mph
Humidity: 69%   Direction: 70°ENE
Pressure: 29.77"   Gusts: NA
Location:  32.47°S, 59.31°W
Report Text: SAAR 241500Z 07004KT 9999 TS BKN023FEW045CB OVC045 25/19 Q1008
Loading
Personal Weather Stations






























Interactive Weather Map New forecast layout! Learn more

10-Day Weather Forecast

Advertisements
Track Severe Weather on mobile